AUL146 ULLI-ULAA
Flight info
| Callsign | AUL146 |
|---|---|
| Flight time | 1h 13m |
| Altitude | 35000 |
| Route | RELNI T693 DISUP T821 MAKOG |
| Aircraft | B738/M-VGDW/C |
Departure
| Time | 2026-04-26 08:24 |
|---|---|
| Airport | Pulkovo Airport (ULLI) |
Arrival
| Time | 2026-04-26 09:38 |
|---|---|
| Airport | Talagi Airport (ULAA) |
| Time | Latitude | Longitude | Altitude | Speed | Heading |
|---|---|---|---|---|---|
| 2026-04-26 08:03 | 59.79690 | 30.26224 | 83 ft | 0 kts | 105° |
| 2026-04-26 08:15 | 59.79690 | 30.26225 | 80 ft | 0 kts | 105° |
| 2026-04-26 08:19 | 59.79689 | 30.26236 | 80 ft | 2 kts | 105° |
| 2026-04-26 08:19 | 59.79684 | 30.26270 | 82 ft | 3 kts | 105° |
| 2026-04-26 08:19 | 59.79666 | 30.26318 | 82 ft | 8 kts | 150° |
| 2026-04-26 08:19 | 59.79621 | 30.26307 | 82 ft | 3 kts | 196° |
| 2026-04-26 08:20 | 59.79604 | 30.26297 | 81 ft | 3 kts | 196° |
| 2026-04-26 08:20 | 59.79586 | 30.26287 | 81 ft | 3 kts | 196° |
| 2026-04-26 08:20 | 59.79570 | 30.26277 | 86 ft | 2 kts | 196° |
| 2026-04-26 08:20 | 59.79553 | 30.26267 | 85 ft | 3 kts | 196° |
| 2026-04-26 08:21 | 59.79534 | 30.26256 | 82 ft | 3 kts | 194° |
| 2026-04-26 08:21 | 59.79511 | 30.26278 | 83 ft | 5 kts | 127° |
| 2026-04-26 08:21 | 59.79499 | 30.26341 | 83 ft | 5 kts | 107° |
| 2026-04-26 08:21 | 59.79489 | 30.26404 | 81 ft | 5 kts | 112° |
| 2026-04-26 08:22 | 59.79461 | 30.26429 | 83 ft | 5 kts | 181° |
| 2026-04-26 08:22 | 59.79429 | 30.26415 | 83 ft | 5 kts | 195° |
| 2026-04-26 08:22 | 59.79398 | 30.26398 | 81 ft | 5 kts | 195° |
| 2026-04-26 08:22 | 59.79368 | 30.26382 | 85 ft | 5 kts | 195° |
| 2026-04-26 08:23 | 59.79337 | 30.26368 | 83 ft | 4 kts | 200° |
| 2026-04-26 08:23 | 59.79323 | 30.26317 | 83 ft | 5 kts | 272° |
| 2026-04-26 08:23 | 59.79325 | 30.26299 | 84 ft | 0 kts | 285° |
| 2026-04-26 08:24 | 59.79346 | 30.26151 | 81 ft | 39 kts | 285° |
| 2026-04-26 08:24 | 59.79498 | 30.25134 | 84 ft | 112 kts | 287° |
| 2026-04-26 08:24 | 59.79780 | 30.23245 | 157 ft | 166 kts | 287° |
| 2026-04-26 08:24 | 59.80097 | 30.21014 | 1028 ft | 167 kts | 289° |
| 2026-04-26 08:25 | 59.80413 | 30.18848 | 2169 ft | 154 kts | 292° |
| 2026-04-26 08:25 | 59.80721 | 30.16802 | 2931 ft | 162 kts | 292° |
| 2026-04-26 08:25 | 59.81070 | 30.14508 | 3380 ft | 180 kts | 291° |
| 2026-04-26 08:25 | 59.81437 | 30.12056 | 4024 ft | 187 kts | 290° |
| 2026-04-26 08:26 | 59.81805 | 30.09574 | 4729 ft | 189 kts | 290° |
| 2026-04-26 08:26 | 59.82189 | 30.06968 | 5111 ft | 203 kts | 290° |
| 2026-04-26 08:26 | 59.82581 | 30.04297 | 5667 ft | 205 kts | 289° |
| 2026-04-26 08:26 | 59.83004 | 30.01482 | 5958 ft | 219 kts | 292° |
| 2026-04-26 08:27 | 59.83881 | 29.99040 | 6360 ft | 221 kts | 327° |
| 2026-04-26 08:27 | 59.85330 | 29.98190 | 6909 ft | 219 kts | 2° |
| 2026-04-26 08:27 | 59.86864 | 29.98783 | 7275 ft | 235 kts | 14° |
| 2026-04-26 08:27 | 59.88465 | 29.99756 | 7783 ft | 244 kts | 16° |
| 2026-04-26 08:28 | 59.90098 | 30.00754 | 8504 ft | 249 kts | 16° |
| 2026-04-26 08:28 | 59.91752 | 30.01968 | 9094 ft | 260 kts | 30° |
| 2026-04-26 08:28 | 59.93023 | 30.04581 | 9635 ft | 273 kts | 59° |
| 2026-04-26 08:28 | 59.93488 | 30.08279 | 10328 ft | 282 kts | 88° |
| 2026-04-26 08:29 | 59.93100 | 30.12150 | 11062 ft | 288 kts | 103° |
| 2026-04-26 08:29 | 59.92518 | 30.15999 | 11767 ft | 293 kts | 104° |
| 2026-04-26 08:29 | 59.91869 | 30.19878 | 12506 ft | 298 kts | 109° |
| 2026-04-26 08:29 | 59.91031 | 30.23634 | 13153 ft | 307 kts | 112° |
| 2026-04-26 08:30 | 59.90097 | 30.27618 | 13424 ft | 325 kts | 112° |
| 2026-04-26 08:30 | 59.89145 | 30.31755 | 14041 ft | 330 kts | 110° |
| 2026-04-26 08:30 | 59.88543 | 30.36130 | 14785 ft | 327 kts | 93° |
| 2026-04-26 08:30 | 59.88413 | 30.40636 | 15602 ft | 326 kts | 88° |
| 2026-04-26 08:31 | 59.88367 | 30.45168 | 16365 ft | 329 kts | 88° |
| 2026-04-26 08:31 | 59.88291 | 30.49736 | 17114 ft | 332 kts | 89° |
| 2026-04-26 08:31 | 59.88179 | 30.54340 | 17828 ft | 335 kts | 90° |
| 2026-04-26 08:31 | 59.88043 | 30.58975 | 18496 ft | 336 kts | 90° |
| 2026-04-26 08:32 | 59.87898 | 30.63630 | 19167 ft | 338 kts | 90° |
| 2026-04-26 08:32 | 59.87973 | 30.68292 | 19783 ft | 337 kts | 75° |
| 2026-04-26 08:32 | 59.88946 | 30.72485 | 20413 ft | 335 kts | 55° |
| 2026-04-26 08:32 | 59.90259 | 30.76321 | 21080 ft | 337 kts | 55° |
| 2026-04-26 08:33 | 59.91578 | 30.80216 | 21660 ft | 341 kts | 56° |
| 2026-04-26 08:33 | 59.92899 | 30.84159 | 22250 ft | 344 kts | 56° |
| 2026-04-26 08:33 | 59.94226 | 30.88143 | 22855 ft | 346 kts | 56° |
| 2026-04-26 08:33 | 59.95564 | 30.92167 | 23292 ft | 350 kts | 56° |
| 2026-04-26 08:34 | 59.96904 | 30.96205 | 23658 ft | 356 kts | 56° |
| 2026-04-26 08:34 | 59.98280 | 31.00365 | 24031 ft | 362 kts | 56° |
| 2026-04-26 08:34 | 59.99675 | 31.04597 | 24262 ft | 368 kts | 56° |
| 2026-04-26 08:34 | 60.01086 | 31.08888 | 24254 ft | 369 kts | 57° |
| 2026-04-26 08:35 | 60.02492 | 31.13177 | 24246 ft | 368 kts | 57° |
| 2026-04-26 08:35 | 60.03888 | 31.17441 | 24254 ft | 365 kts | 57° |
| 2026-04-26 08:35 | 60.05277 | 31.21691 | 24261 ft | 365 kts | 57° |
| 2026-04-26 08:35 | 60.06666 | 31.25950 | 24268 ft | 366 kts | 57° |
| 2026-04-26 08:36 | 60.08055 | 31.30216 | 24262 ft | 366 kts | 57° |
| 2026-04-26 08:36 | 60.09442 | 31.34484 | 24261 ft | 366 kts | 57° |
| 2026-04-26 08:36 | 60.10830 | 31.38753 | 24259 ft | 366 kts | 57° |
| 2026-04-26 08:36 | 60.12219 | 31.43043 | 24260 ft | 366 kts | 57° |
| 2026-04-26 08:37 | 60.13607 | 31.47319 | 24259 ft | 366 kts | 55° |
| 2026-04-26 08:37 | 60.15358 | 31.51005 | 24260 ft | 367 kts | 36° |
| 2026-04-26 08:37 | 60.17570 | 31.53454 | 24266 ft | 369 kts | 26° |
| 2026-04-26 08:37 | 60.19928 | 31.55505 | 24259 ft | 370 kts | 24° |
| 2026-04-26 08:38 | 60.22306 | 31.57482 | 24250 ft | 370 kts | 24° |
| 2026-04-26 08:38 | 60.24682 | 31.59453 | 24253 ft | 370 kts | 24° |
| 2026-04-26 08:38 | 60.27061 | 31.61444 | 24253 ft | 370 kts | 24° |
| 2026-04-26 08:38 | 60.29436 | 31.63453 | 24259 ft | 370 kts | 24° |
| 2026-04-26 08:39 | 60.31811 | 31.65480 | 24253 ft | 371 kts | 24° |
| 2026-04-26 08:39 | 60.34180 | 31.67515 | 24251 ft | 371 kts | 25° |
| 2026-04-26 08:39 | 60.36553 | 31.69563 | 24258 ft | 371 kts | 25° |
| 2026-04-26 08:39 | 60.38925 | 31.71616 | 24260 ft | 371 kts | 25° |
| 2026-04-26 08:40 | 60.41297 | 31.73674 | 24261 ft | 371 kts | 25° |
| 2026-04-26 08:40 | 60.43671 | 31.75737 | 24250 ft | 371 kts | 25° |
| 2026-04-26 08:40 | 60.46048 | 31.77805 | 24251 ft | 371 kts | 25° |
| 2026-04-26 08:40 | 60.48421 | 31.79874 | 24253 ft | 372 kts | 25° |
| 2026-04-26 08:41 | 60.50796 | 31.81947 | 24254 ft | 372 kts | 25° |
| 2026-04-26 08:41 | 60.53171 | 31.84025 | 24257 ft | 372 kts | 25° |
| 2026-04-26 08:41 | 60.55522 | 31.86084 | 24258 ft | 372 kts | 25° |
| 2026-04-26 08:41 | 60.57902 | 31.88172 | 24256 ft | 373 kts | 25° |
| 2026-04-26 08:42 | 60.60283 | 31.90264 | 24254 ft | 373 kts | 25° |
| 2026-04-26 08:42 | 60.62666 | 31.92360 | 24255 ft | 374 kts | 25° |
| 2026-04-26 08:42 | 60.65052 | 31.94462 | 24257 ft | 374 kts | 25° |
| 2026-04-26 08:42 | 60.67442 | 31.96572 | 24255 ft | 374 kts | 25° |
| 2026-04-26 08:43 | 60.69870 | 31.98532 | 24251 ft | 379 kts | 19° |
| 2026-04-26 08:43 | 60.72495 | 31.99695 | 24270 ft | 396 kts | 8° |
| 2026-04-26 08:43 | 60.75298 | 32.00055 | 24279 ft | 410 kts | 4° |
| 2026-04-26 08:43 | 60.78183 | 32.00227 | 24274 ft | 419 kts | 4° |
| 2026-04-26 08:44 | 60.81110 | 32.00375 | 24265 ft | 421 kts | 4° |
| 2026-04-26 08:44 | 60.83995 | 32.00549 | 24248 ft | 420 kts | 4° |
| 2026-04-26 08:44 | 60.86914 | 32.00761 | 24256 ft | 420 kts | 4° |
| 2026-04-26 08:44 | 60.89834 | 32.00988 | 24259 ft | 420 kts | 4° |
| 2026-04-26 08:45 | 60.92760 | 32.01220 | 24261 ft | 421 kts | 5° |
| 2026-04-26 08:45 | 60.95644 | 32.02060 | 24259 ft | 417 kts | 19° |
| 2026-04-26 08:45 | 60.98276 | 32.04460 | 24281 ft | 413 kts | 34° |
| 2026-04-26 08:45 | 61.00517 | 32.08108 | 24273 ft | 410 kts | 46° |
| 2026-04-26 08:46 | 61.02536 | 32.12268 | 24278 ft | 411 kts | 47° |
| 2026-04-26 08:46 | 61.04559 | 32.16430 | 24273 ft | 410 kts | 47° |
| 2026-04-26 08:46 | 61.06588 | 32.20579 | 24271 ft | 411 kts | 46° |
| 2026-04-26 08:46 | 61.08626 | 32.24710 | 24268 ft | 411 kts | 46° |
| 2026-04-26 08:47 | 61.10672 | 32.28841 | 24272 ft | 411 kts | 46° |
| 2026-04-26 08:47 | 61.12717 | 32.32969 | 24273 ft | 411 kts | 46° |
| 2026-04-26 08:47 | 61.14737 | 32.37055 | 24274 ft | 411 kts | 46° |
| 2026-04-26 08:47 | 61.16781 | 32.41200 | 24277 ft | 411 kts | 46° |
| 2026-04-26 08:48 | 61.18826 | 32.45358 | 24281 ft | 412 kts | 47° |
| 2026-04-26 08:48 | 61.20871 | 32.49525 | 24281 ft | 412 kts | 47° |
| 2026-04-26 08:48 | 61.22915 | 32.53693 | 24283 ft | 412 kts | 47° |
| 2026-04-26 08:48 | 61.24959 | 32.57870 | 24285 ft | 413 kts | 47° |
| 2026-04-26 08:49 | 61.27008 | 32.62069 | 24286 ft | 413 kts | 47° |
| 2026-04-26 08:49 | 61.29076 | 32.66221 | 24286 ft | 414 kts | 46° |
| 2026-04-26 08:49 | 61.31159 | 32.70351 | 24284 ft | 414 kts | 46° |
| 2026-04-26 08:49 | 61.33244 | 32.74483 | 24289 ft | 414 kts | 46° |
| 2026-04-26 08:50 | 61.35332 | 32.78622 | 24291 ft | 414 kts | 46° |
| 2026-04-26 08:50 | 61.37420 | 32.82771 | 24290 ft | 415 kts | 46° |
| 2026-04-26 08:50 | 61.39476 | 32.86876 | 24297 ft | 415 kts | 47° |
| 2026-04-26 08:50 | 61.41562 | 32.91052 | 24298 ft | 416 kts | 47° |
| 2026-04-26 08:51 | 61.45740 | 32.99444 | 24308 ft | 417 kts | 47° |
| 2026-04-26 08:51 | 61.47792 | 33.03735 | 24299 ft | 416 kts | 52° |
| 2026-04-26 08:51 | 61.49613 | 33.08419 | 24310 ft | 415 kts | 54° |
| 2026-04-26 08:52 | 61.51385 | 33.13195 | 24305 ft | 415 kts | 55° |
| 2026-04-26 08:52 | 61.53143 | 33.18007 | 24311 ft | 416 kts | 56° |
| 2026-04-26 08:52 | 61.54904 | 33.22824 | 24311 ft | 416 kts | 55° |
| 2026-04-26 08:52 | 61.56672 | 33.27639 | 24319 ft | 417 kts | 55° |
| 2026-04-26 08:53 | 61.58443 | 33.32447 | 24318 ft | 416 kts | 55° |
| 2026-04-26 08:53 | 61.60214 | 33.37255 | 24334 ft | 417 kts | 55° |
| 2026-04-26 08:53 | 61.61966 | 33.42017 | 24330 ft | 417 kts | 55° |
| 2026-04-26 08:53 | 61.63738 | 33.46843 | 24320 ft | 417 kts | 55° |
| 2026-04-26 08:54 | 61.65513 | 33.51688 | 24333 ft | 418 kts | 55° |
| 2026-04-26 08:54 | 61.67286 | 33.56539 | 24331 ft | 418 kts | 56° |
| 2026-04-26 08:54 | 61.69059 | 33.61398 | 24340 ft | 418 kts | 56° |
| 2026-04-26 08:54 | 61.70829 | 33.66263 | 24342 ft | 419 kts | 56° |
| 2026-04-26 08:55 | 61.72603 | 33.71147 | 24343 ft | 419 kts | 56° |
| 2026-04-26 08:55 | 61.74376 | 33.76040 | 24358 ft | 420 kts | 56° |
| 2026-04-26 08:55 | 61.76147 | 33.80936 | 24354 ft | 420 kts | 56° |
| 2026-04-26 08:55 | 61.77917 | 33.85842 | 24353 ft | 420 kts | 56° |
| 2026-04-26 08:56 | 61.79688 | 33.90762 | 24362 ft | 421 kts | 56° |
| 2026-04-26 08:56 | 61.81437 | 33.95628 | 24365 ft | 421 kts | 56° |
| 2026-04-26 08:56 | 61.83205 | 34.00557 | 24351 ft | 421 kts | 56° |
| 2026-04-26 08:56 | 61.84977 | 34.05502 | 24359 ft | 422 kts | 56° |
| 2026-04-26 08:57 | 61.86745 | 34.10456 | 24360 ft | 422 kts | 56° |
| 2026-04-26 08:57 | 61.88579 | 34.15321 | 24357 ft | 424 kts | 51° |
| 2026-04-26 08:57 | 61.90738 | 34.19622 | 24370 ft | 427 kts | 44° |
| 2026-04-26 08:57 | 61.93012 | 34.23688 | 24357 ft | 428 kts | 43° |
| 2026-04-26 08:58 | 61.95311 | 34.27718 | 24356 ft | 428 kts | 42° |
| 2026-04-26 08:58 | 61.97611 | 34.31752 | 24354 ft | 429 kts | 42° |
| 2026-04-26 08:58 | 61.99907 | 34.35796 | 24362 ft | 429 kts | 43° |
| 2026-04-26 08:58 | 62.02203 | 34.39867 | 24364 ft | 429 kts | 43° |
| 2026-04-26 08:59 | 62.04492 | 34.43952 | 24365 ft | 430 kts | 43° |
| 2026-04-26 08:59 | 62.06783 | 34.48061 | 24367 ft | 430 kts | 43° |
| 2026-04-26 08:59 | 62.09067 | 34.52174 | 24375 ft | 430 kts | 43° |
| 2026-04-26 08:59 | 62.11351 | 34.56299 | 24396 ft | 431 kts | 43° |
| 2026-04-26 09:00 | 62.13639 | 34.60439 | 24385 ft | 431 kts | 43° |
| 2026-04-26 09:00 | 62.15930 | 34.64594 | 24387 ft | 431 kts | 43° |
| 2026-04-26 09:00 | 62.18216 | 34.68746 | 24388 ft | 431 kts | 43° |
| 2026-04-26 09:00 | 62.20474 | 34.72857 | 24396 ft | 432 kts | 43° |
| 2026-04-26 09:01 | 62.22761 | 34.77030 | 24393 ft | 432 kts | 43° |
| 2026-04-26 09:01 | 62.25051 | 34.81214 | 24394 ft | 432 kts | 43° |
| 2026-04-26 09:01 | 62.27338 | 34.85405 | 24407 ft | 433 kts | 43° |
| 2026-04-26 09:01 | 62.29628 | 34.89608 | 24405 ft | 433 kts | 43° |
| 2026-04-26 09:02 | 62.31919 | 34.93821 | 24398 ft | 434 kts | 43° |
| 2026-04-26 09:02 | 62.34211 | 34.98045 | 24404 ft | 434 kts | 43° |
| 2026-04-26 09:02 | 62.36503 | 35.02273 | 24408 ft | 434 kts | 43° |
| 2026-04-26 09:02 | 62.38798 | 35.06519 | 24411 ft | 434 kts | 43° |
| 2026-04-26 09:03 | 62.41084 | 35.10775 | 24413 ft | 435 kts | 43° |
| 2026-04-26 09:03 | 62.43364 | 35.15075 | 24415 ft | 435 kts | 43° |
| 2026-04-26 09:03 | 62.45634 | 35.19393 | 24419 ft | 435 kts | 44° |
| 2026-04-26 09:03 | 62.47905 | 35.23724 | 24419 ft | 436 kts | 43° |
| 2026-04-26 09:04 | 62.50186 | 35.28068 | 24416 ft | 436 kts | 43° |
| 2026-04-26 09:04 | 62.52434 | 35.32351 | 24416 ft | 437 kts | 43° |
| 2026-04-26 09:04 | 62.54717 | 35.36708 | 24422 ft | 437 kts | 43° |
| 2026-04-26 09:04 | 62.56999 | 35.41074 | 24430 ft | 438 kts | 43° |
| 2026-04-26 09:05 | 62.59281 | 35.45449 | 24430 ft | 438 kts | 43° |
| 2026-04-26 09:05 | 62.61566 | 35.49841 | 24445 ft | 439 kts | 43° |
| 2026-04-26 09:05 | 62.63848 | 35.54236 | 24435 ft | 438 kts | 43° |
| 2026-04-26 09:05 | 62.66129 | 35.58639 | 24437 ft | 438 kts | 43° |
| 2026-04-26 09:06 | 62.68407 | 35.63047 | 24445 ft | 439 kts | 43° |
| 2026-04-26 09:06 | 62.70688 | 35.67470 | 24446 ft | 439 kts | 43° |
| 2026-04-26 09:06 | 62.72965 | 35.71894 | 24439 ft | 438 kts | 43° |
| 2026-04-26 09:06 | 62.75237 | 35.76318 | 24446 ft | 438 kts | 43° |
| 2026-04-26 09:07 | 62.77479 | 35.80693 | 24457 ft | 438 kts | 43° |
| 2026-04-26 09:07 | 62.79749 | 35.85134 | 24453 ft | 439 kts | 43° |
| 2026-04-26 09:07 | 62.82027 | 35.89598 | 24459 ft | 440 kts | 43° |
| 2026-04-26 09:07 | 62.84303 | 35.94061 | 24455 ft | 439 kts | 43° |
| 2026-04-26 09:08 | 62.86572 | 35.98527 | 24463 ft | 439 kts | 44° |
| 2026-04-26 09:08 | 62.88849 | 36.03003 | 24471 ft | 440 kts | 43° |
| 2026-04-26 09:08 | 62.91149 | 36.07498 | 24686 ft | 445 kts | 43° |
| 2026-04-26 09:08 | 62.93466 | 36.12028 | 25165 ft | 446 kts | 43° |
| 2026-04-26 09:09 | 62.95782 | 36.16559 | 25685 ft | 446 kts | 43° |
| 2026-04-26 09:09 | 62.98106 | 36.21104 | 26102 ft | 449 kts | 43° |
| 2026-04-26 09:09 | 63.00449 | 36.25697 | 26469 ft | 452 kts | 43° |
| 2026-04-26 09:09 | 63.02803 | 36.30326 | 26851 ft | 455 kts | 43° |
| 2026-04-26 09:10 | 63.05169 | 36.34995 | 27227 ft | 458 kts | 43° |
| 2026-04-26 09:10 | 63.07544 | 36.39693 | 27611 ft | 460 kts | 43° |
| 2026-04-26 09:10 | 63.09931 | 36.44428 | 27967 ft | 463 kts | 43° |
| 2026-04-26 09:10 | 63.12330 | 36.49198 | 28320 ft | 465 kts | 43° |
| 2026-04-26 09:11 | 63.14741 | 36.54001 | 28661 ft | 468 kts | 43° |
| 2026-04-26 09:11 | 63.17132 | 36.58770 | 28998 ft | 470 kts | 43° |
| 2026-04-26 09:11 | 63.19564 | 36.63637 | 29333 ft | 472 kts | 43° |
| 2026-04-26 09:11 | 63.21905 | 36.68728 | 29696 ft | 471 kts | 50° |
| 2026-04-26 09:12 | 63.24029 | 36.74267 | 30070 ft | 470 kts | 51° |
| 2026-04-26 09:12 | 63.26098 | 36.79890 | 30370 ft | 471 kts | 52° |
| 2026-04-26 09:12 | 63.28162 | 36.85554 | 30672 ft | 472 kts | 52° |
| 2026-04-26 09:12 | 63.30238 | 36.91212 | 30968 ft | 473 kts | 51° |
| 2026-04-26 09:13 | 63.32325 | 36.96859 | 31302 ft | 473 kts | 51° |
| 2026-04-26 09:13 | 63.34414 | 37.02503 | 31575 ft | 473 kts | 51° |
| 2026-04-26 09:13 | 63.36498 | 37.08137 | 31509 ft | 468 kts | 51° |
| 2026-04-26 09:14 | 63.40577 | 37.19217 | 31487 ft | 457 kts | 51° |
| 2026-04-26 09:14 | 63.44586 | 37.30177 | 31508 ft | 456 kts | 51° |
| 2026-04-26 09:15 | 63.48570 | 37.41157 | 30949 ft | 458 kts | 52° |
| 2026-04-26 09:15 | 63.50574 | 37.46678 | 30454 ft | 455 kts | 52° |
| 2026-04-26 09:15 | 63.52563 | 37.52166 | 29989 ft | 453 kts | 52° |
| 2026-04-26 09:15 | 63.54546 | 37.57652 | 29504 ft | 453 kts | 52° |
| 2026-04-26 09:16 | 63.56530 | 37.63157 | 28918 ft | 454 kts | 52° |
| 2026-04-26 09:16 | 63.58520 | 37.68698 | 28262 ft | 456 kts | 52° |
| 2026-04-26 09:16 | 63.60514 | 37.74263 | 27627 ft | 458 kts | 52° |
| 2026-04-26 09:16 | 63.62506 | 37.79839 | 27023 ft | 458 kts | 52° |
| 2026-04-26 09:17 | 63.64507 | 37.85451 | 26428 ft | 459 kts | 52° |
| 2026-04-26 09:17 | 63.65824 | 37.89151 | 26037 ft | 457 kts | 52° |
| 2026-04-26 09:17 | 63.68465 | 37.96594 | 25259 ft | 452 kts | 52° |
| 2026-04-26 09:17 | 63.70415 | 38.02103 | 24709 ft | 448 kts | 52° |
| 2026-04-26 09:18 | 63.72347 | 38.07578 | 24159 ft | 445 kts | 52° |
| 2026-04-26 09:18 | 63.74266 | 38.13026 | 23621 ft | 441 kts | 52° |
| 2026-04-26 09:18 | 63.76164 | 38.18431 | 23089 ft | 438 kts | 51° |
| 2026-04-26 09:18 | 63.78047 | 38.23804 | 22460 ft | 434 kts | 52° |
| 2026-04-26 09:19 | 63.79911 | 38.29132 | 21839 ft | 430 kts | 52° |
| 2026-04-26 09:19 | 63.81760 | 38.34433 | 21237 ft | 428 kts | 52° |
| 2026-04-26 09:19 | 63.83599 | 38.39719 | 20649 ft | 426 kts | 52° |
| 2026-04-26 09:19 | 63.85398 | 38.44900 | 20079 ft | 422 kts | 52° |
| 2026-04-26 09:20 | 63.87202 | 38.50109 | 19509 ft | 419 kts | 52° |
| 2026-04-26 09:20 | 63.88990 | 38.55284 | 18947 ft | 415 kts | 53° |
| 2026-04-26 09:20 | 63.90764 | 38.60428 | 18390 ft | 412 kts | 53° |
| 2026-04-26 09:20 | 63.92521 | 38.65538 | 17848 ft | 409 kts | 53° |
| 2026-04-26 09:21 | 63.94262 | 38.70613 | 17224 ft | 406 kts | 53° |
| 2026-04-26 09:21 | 63.95991 | 38.75662 | 16616 ft | 402 kts | 53° |
| 2026-04-26 09:21 | 63.97701 | 38.80669 | 16011 ft | 399 kts | 53° |
| 2026-04-26 09:21 | 63.99394 | 38.85636 | 15438 ft | 396 kts | 53° |
| 2026-04-26 09:22 | 64.01073 | 38.90573 | 14907 ft | 391 kts | 53° |
| 2026-04-26 09:22 | 64.02733 | 38.95453 | 14395 ft | 387 kts | 53° |
| 2026-04-26 09:22 | 64.04368 | 39.00279 | 13958 ft | 381 kts | 53° |
| 2026-04-26 09:22 | 64.05954 | 39.04953 | 13582 ft | 374 kts | 51° |
| 2026-04-26 09:23 | 64.07824 | 39.09014 | 13173 ft | 368 kts | 39° |
| 2026-04-26 09:23 | 64.09814 | 39.12609 | 12753 ft | 362 kts | 38° |
| 2026-04-26 09:23 | 64.11791 | 39.16118 | 12342 ft | 357 kts | 38° |
| 2026-04-26 09:23 | 64.13744 | 39.19595 | 11938 ft | 353 kts | 38° |
| 2026-04-26 09:24 | 64.15668 | 39.23036 | 11538 ft | 349 kts | 38° |
| 2026-04-26 09:24 | 64.17577 | 39.26467 | 11143 ft | 348 kts | 38° |
| 2026-04-26 09:24 | 64.19477 | 39.29903 | 10762 ft | 347 kts | 38° |
| 2026-04-26 09:24 | 64.21369 | 39.33339 | 10381 ft | 346 kts | 39° |
| 2026-04-26 09:25 | 64.23248 | 39.36763 | 10014 ft | 344 kts | 39° |
| 2026-04-26 09:25 | 64.25117 | 39.40181 | 9663 ft | 343 kts | 39° |
| 2026-04-26 09:25 | 64.26982 | 39.43597 | 9297 ft | 342 kts | 39° |
| 2026-04-26 09:25 | 64.28836 | 39.46999 | 8912 ft | 339 kts | 39° |
| 2026-04-26 09:26 | 64.30671 | 39.50371 | 8530 ft | 336 kts | 39° |
| 2026-04-26 09:26 | 64.32463 | 39.53673 | 8159 ft | 333 kts | 39° |
| 2026-04-26 09:26 | 64.34265 | 39.56998 | 7788 ft | 331 kts | 39° |
| 2026-04-26 09:26 | 64.36055 | 39.60305 | 7415 ft | 328 kts | 39° |
| 2026-04-26 09:27 | 64.37827 | 39.63583 | 7064 ft | 324 kts | 39° |
| 2026-04-26 09:27 | 64.39569 | 39.66807 | 6762 ft | 318 kts | 39° |
| 2026-04-26 09:27 | 64.41276 | 39.69978 | 6476 ft | 312 kts | 39° |
| 2026-04-26 09:27 | 64.42952 | 39.73097 | 6199 ft | 306 kts | 39° |
| 2026-04-26 09:28 | 64.44670 | 39.75943 | 5908 ft | 302 kts | 32° |
| 2026-04-26 09:28 | 64.46484 | 39.78320 | 5608 ft | 297 kts | 29° |
| 2026-04-26 09:28 | 64.48293 | 39.80563 | 5310 ft | 293 kts | 29° |
| 2026-04-26 09:28 | 64.49473 | 39.82034 | 5164 ft | 288 kts | 29° |
| 2026-04-26 09:29 | 64.51792 | 39.84983 | 4873 ft | 280 kts | 30° |
| 2026-04-26 09:29 | 64.52914 | 39.86424 | 4728 ft | 276 kts | 30° |
| 2026-04-26 09:29 | 64.54577 | 39.88575 | 4518 ft | 271 kts | 30° |
| 2026-04-26 09:29 | 64.56201 | 39.90685 | 4343 ft | 264 kts | 30° |
| 2026-04-26 09:30 | 64.58283 | 39.93405 | 4120 ft | 255 kts | 31° |
| 2026-04-26 09:30 | 64.59813 | 39.95411 | 3955 ft | 249 kts | 31° |
| 2026-04-26 09:30 | 64.61293 | 39.97351 | 3899 ft | 238 kts | 31° |
| 2026-04-26 09:30 | 64.62618 | 39.99479 | 3820 ft | 227 kts | 50° |
| 2026-04-26 09:31 | 64.63258 | 40.02713 | 3623 ft | 220 kts | 84° |
| 2026-04-26 09:31 | 64.63276 | 40.05037 | 3537 ft | 214 kts | 94° |
| 2026-04-26 09:31 | 64.63129 | 40.08435 | 3363 ft | 209 kts | 97° |
| 2026-04-26 09:31 | 64.62949 | 40.11779 | 3149 ft | 206 kts | 97° |
| 2026-04-26 09:32 | 64.62782 | 40.15027 | 2967 ft | 198 kts | 97° |
| 2026-04-26 09:32 | 64.62626 | 40.18165 | 2758 ft | 191 kts | 97° |
| 2026-04-26 09:32 | 64.62478 | 40.21201 | 2569 ft | 185 kts | 97° |
| 2026-04-26 09:32 | 64.62336 | 40.24138 | 2367 ft | 178 kts | 97° |
| 2026-04-26 09:33 | 64.62202 | 40.26912 | 2175 ft | 166 kts | 98° |
| 2026-04-26 09:33 | 64.62077 | 40.29504 | 1989 ft | 156 kts | 98° |
| 2026-04-26 09:33 | 64.61957 | 40.31998 | 1839 ft | 153 kts | 97° |
| 2026-04-26 09:33 | 64.61844 | 40.34374 | 1796 ft | 146 kts | 98° |
| 2026-04-26 09:34 | 64.61732 | 40.36693 | 1829 ft | 145 kts | 97° |
| 2026-04-26 09:34 | 64.61626 | 40.39043 | 1811 ft | 144 kts | 98° |
| 2026-04-26 09:34 | 64.61521 | 40.41380 | 1812 ft | 146 kts | 97° |
| 2026-04-26 09:34 | 64.61414 | 40.43718 | 1804 ft | 145 kts | 98° |
| 2026-04-26 09:35 | 64.61315 | 40.46069 | 1807 ft | 145 kts | 98° |
| 2026-04-26 09:35 | 64.61211 | 40.48420 | 1816 ft | 146 kts | 97° |
| 2026-04-26 09:35 | 64.61092 | 40.50788 | 1699 ft | 151 kts | 101° |
| 2026-04-26 09:35 | 64.60925 | 40.53292 | 1317 ft | 156 kts | 98° |
| 2026-04-26 09:36 | 64.60811 | 40.55712 | 1040 ft | 147 kts | 97° |
| 2026-04-26 09:36 | 64.60678 | 40.58016 | 792 ft | 140 kts | 99° |
| 2026-04-26 09:36 | 64.60579 | 40.60284 | 654 ft | 143 kts | 95° |
| 2026-04-26 09:36 | 64.60472 | 40.62582 | 483 ft | 140 kts | 94° |
| 2026-04-26 09:37 | 64.60369 | 40.64808 | 383 ft | 141 kts | 99° |
| 2026-04-26 09:37 | 64.60263 | 40.67028 | 255 ft | 137 kts | 97° |
| 2026-04-26 09:37 | 64.60148 | 40.69230 | 70 ft | 137 kts | 96° |
| 2026-04-26 09:37 | 64.60050 | 40.71297 | 37 ft | 108 kts | 96° |
| 2026-04-26 09:38 | 64.59988 | 40.72549 | 37 ft | 48 kts | 97° |
| 2026-04-26 09:38 | 64.59956 | 40.73192 | 37 ft | 20 kts | 96° |
| 2026-04-26 09:38 | 64.59940 | 40.73508 | 35 ft | 17 kts | 96° |
| 2026-04-26 09:38 | 64.59940 | 40.73666 | 34 ft | 9 kts | 88° |
| 2026-04-26 09:39 | 64.59933 | 40.73709 | 34 ft | 1 kts | 152° |
| 2026-04-26 09:39 | 64.59927 | 40.73703 | 34 ft | 1 kts | 207° |
| 2026-04-26 09:39 | 64.59927 | 40.73674 | 34 ft | 4 kts | 279° |
| 2026-04-26 09:39 | 64.59935 | 40.73552 | 34 ft | 10 kts | 278° |
| 2026-04-26 09:40 | 64.59945 | 40.73364 | 36 ft | 13 kts | 277° |
| 2026-04-26 09:40 | 64.59957 | 40.73102 | 38 ft | 22 kts | 276° |
| 2026-04-26 09:40 | 64.59980 | 40.72666 | 37 ft | 29 kts | 277° |
| 2026-04-26 09:40 | 64.60002 | 40.72216 | 33 ft | 27 kts | 276° |
| 2026-04-26 09:41 | 64.60023 | 40.71788 | 33 ft | 27 kts | 277° |
| 2026-04-26 09:41 | 64.60039 | 40.71466 | 35 ft | 10 kts | 276° |
| 2026-04-26 09:41 | 64.60012 | 40.71340 | 37 ft | 10 kts | 196° |
| 2026-04-26 09:41 | 64.59942 | 40.71317 | 39 ft | 11 kts | 185° |
| 2026-04-26 09:42 | 64.59868 | 40.71302 | 39 ft | 5 kts | 185° |
| 2026-04-26 09:42 | 64.59833 | 40.71347 | 37 ft | 7 kts | 120° |
| 2026-04-26 09:42 | 64.59787 | 40.71391 | 39 ft | 8 kts | 186° |
| 2026-04-26 09:42 | 64.59777 | 40.71388 | 39 ft | 1 kts | 186° |
| 2026-04-26 09:43 | 64.59772 | 40.71387 | 39 ft | 0 kts | 186° |